sensor_id;sensor_type;location;lat;lon;timestamp;P1;durP1;ratioP1;P2;durP2;ratioP2
5032;SDS011;2535;49.888;8.942;2022-08-19T00:01:35;7.40;;;3.93;;
5032;SDS011;2535;49.888;8.942;2022-08-19T00:04:02;9.30;;;2.67;;
5032;SDS011;2535;49.888;8.942;2022-08-19T00:06:29;5.10;;;1.97;;
5032;SDS011;2535;49.888;8.942;2022-08-19T00:08:55;4.97;;;3.20;;
5032;SDS011;2535;49.888;8.942;2022-08-19T00:11:22;4.30;;;3.10;;
5032;SDS011;2535;49.888;8.942;2022-08-19T00:13:48;5.90;;;3.63;;
5032;SDS011;2535;49.888;8.942;2022-08-19T00:16:15;13.50;;;3.70;;
5032;SDS011;2535;49.888;8.942;2022-08-19T00:18:43;9.63;;;3.87;;
5032;SDS011;2535;49.888;8.942;2022-08-19T00:21:09;2.23;;;1.97;;
5032;SDS011;2535;49.888;8.942;2022-08-19T00:23:35;4.80;;;3.07;;
5032;SDS011;2535;49.888;8.942;2022-08-19T00:26:02;7.13;;;5.10;;
5032;SDS011;2535;49.888;8.942;2022-08-19T00:28:29;12.90;;;5.00;;
5032;SDS011;2535;49.888;8.942;2022-08-19T00:30:55;8.40;;;2.90;;
5032;SDS011;2535;49.888;8.942;2022-08-19T00:33:21;6.50;;;3.90;;
5032;SDS011;2535;49.888;8.942;2022-08-19T00:35:47;6.50;;;4.10;;
5032;SDS011;2535;49.888;8.942;2022-08-19T00:38:13;8.10;;;3.10;;
5032;SDS011;2535;49.888;8.942;2022-08-19T00:40:40;6.87;;;2.67;;
5032;SDS011;2535;49.888;8.942;2022-08-19T00:43:10;4.33;;;3.10;;
5032;SDS011;2535;49.888;8.942;2022-08-19T00:45:38;11.40;;;5.30;;
5032;SDS011;2535;49.888;8.942;2022-08-19T00:48:06;5.87;;;3.67;;
5032;SDS011;2535;49.888;8.942;2022-08-19T00:50:32;6.80;;;3.17;;
5032;SDS011;2535;49.888;8.942;2022-08-19T00:52:59;12.90;;;5.03;;
5032;SDS011;2535;49.888;8.942;2022-08-19T00:55:26;7.03;;;5.50;;
5032;SDS011;2535;49.888;8.942;2022-08-19T00:57:58;14.73;;;5.33;;
5032;SDS011;2535;49.888;8.942;2022-08-19T01:00:25;6.10;;;3.00;;
5032;SDS011;2535;49.888;8.942;2022-08-19T01:02:52;2.53;;;2.10;;
5032;SDS011;2535;49.888;8.942;2022-08-19T01:05:21;8.83;;;3.37;;
5032;SDS011;2535;49.888;8.942;2022-08-19T01:07:47;12.40;;;3.33;;
5032;SDS011;2535;49.888;8.942;2022-08-19T01:10:17;6.50;;;4.13;;
5032;SDS011;2535;49.888;8.942;2022-08-19T01:12:44;6.43;;;3.00;;
5032;SDS011;2535;49.888;8.942;2022-08-19T01:15:12;7.70;;;4.13;;
5032;SDS011;2535;49.888;8.942;2022-08-19T01:17:39;9.40;;;4.03;;
5032;SDS011;2535;49.888;8.942;2022-08-19T01:20:07;15.93;;;3.87;;
5032;SDS011;2535;49.888;8.942;2022-08-19T01:22:48;4.60;;;2.60;;
5032;SDS011;2535;49.888;8.942;2022-08-19T01:25:15;5.20;;;3.80;;
5032;SDS011;2535;49.888;8.942;2022-08-19T01:27:43;7.03;;;3.37;;
5032;SDS011;2535;49.888;8.942;2022-08-19T01:30:11;6.60;;;2.60;;
5032;SDS011;2535;49.888;8.942;2022-08-19T01:32:37;6.83;;;2.47;;
5032;SDS011;2535;49.888;8.942;2022-08-19T01:35:03;6.13;;;3.63;;
5032;SDS011;2535;49.888;8.942;2022-08-19T01:37:29;5.80;;;3.30;;
5032;SDS011;2535;49.888;8.942;2022-08-19T01:39:56;6.03;;;5.43;;
5032;SDS011;2535;49.888;8.942;2022-08-19T01:42:22;9.07;;;4.10;;
5032;SDS011;2535;49.888;8.942;2022-08-19T01:44:48;5.17;;;3.13;;
5032;SDS011;2535;49.888;8.942;2022-08-19T01:47:14;14.23;;;4.57;;
5032;SDS011;2535;49.888;8.942;2022-08-19T01:49:40;7.53;;;4.77;;
5032;SDS011;2535;49.888;8.942;2022-08-19T01:52:06;3.17;;;2.27;;
5032;SDS011;2535;49.888;8.942;2022-08-19T01:54:32;6.10;;;3.40;;
5032;SDS011;2535;49.888;8.942;2022-08-19T01:57:03;6.93;;;4.47;;
5032;SDS011;2535;49.888;8.942;2022-08-19T01:59:29;6.20;;;4.53;;
5032;SDS011;2535;49.888;8.942;2022-08-19T02:01:55;9.70;;;4.60;;
5032;SDS011;2535;49.888;8.942;2022-08-19T02:04:22;5.83;;;3.03;;
5032;SDS011;2535;49.888;8.942;2022-08-19T02:06:50;3.53;;;2.83;;
5032;SDS011;2535;49.888;8.942;2022-08-19T02:09:16;5.33;;;3.60;;
5032;SDS011;2535;49.888;8.942;2022-08-19T02:11:42;11.13;;;4.07;;
5032;SDS011;2535;49.888;8.942;2022-08-19T02:14:08;20.50;;;3.77;;
5032;SDS011;2535;49.888;8.942;2022-08-19T02:16:34;5.57;;;3.20;;
5032;SDS011;2535;49.888;8.942;2022-08-19T02:19:01;6.53;;;3.93;;
5032;SDS011;2535;49.888;8.942;2022-08-19T02:21:27;6.30;;;3.53;;
5032;SDS011;2535;49.888;8.942;2022-08-19T02:23:53;4.53;;;3.00;;
5032;SDS011;2535;49.888;8.942;2022-08-19T02:26:20;2.40;;;2.20;;
5032;SDS011;2535;49.888;8.942;2022-08-19T02:28:46;9.00;;;3.47;;
5032;SDS011;2535;49.888;8.942;2022-08-19T02:31:15;4.33;;;3.03;;
5032;SDS011;2535;49.888;8.942;2022-08-19T02:33:41;7.83;;;5.00;;
5032;SDS011;2535;49.888;8.942;2022-08-19T02:36:07;5.17;;;4.37;;
5032;SDS011;2535;49.888;8.942;2022-08-19T02:38:33;4.37;;;2.90;;
5032;SDS011;2535;49.888;8.942;2022-08-19T02:41:03;4.10;;;2.03;;
5032;SDS011;2535;49.888;8.942;2022-08-19T02:43:30;7.17;;;3.93;;
5032;SDS011;2535;49.888;8.942;2022-08-19T02:45:57;9.93;;;4.10;;
5032;SDS011;2535;49.888;8.942;2022-08-19T02:48:23;7.13;;;3.47;;
5032;SDS011;2535;49.888;8.942;2022-08-19T02:50:51;6.90;;;3.10;;
5032;SDS011;2535;49.888;8.942;2022-08-19T02:53:19;7.27;;;4.40;;
5032;SDS011;2535;49.888;8.942;2022-08-19T02:55:47;4.47;;;3.20;;
5032;SDS011;2535;49.888;8.942;2022-08-19T02:58:13;3.87;;;2.47;;
5032;SDS011;2535;49.888;8.942;2022-08-19T03:00:44;4.67;;;3.60;;
5032;SDS011;2535;49.888;8.942;2022-08-19T03:03:10;9.80;;;3.67;;
5032;SDS011;2535;49.888;8.942;2022-08-19T03:05:36;15.23;;;4.53;;
5032;SDS011;2535;49.888;8.942;2022-08-19T03:08:02;4.90;;;4.00;;
5032;SDS011;2535;49.888;8.942;2022-08-19T03:10:29;7.77;;;3.10;;
5032;SDS011;2535;49.888;8.942;2022-08-19T03:12:54;5.07;;;3.97;;
5032;SDS011;2535;49.888;8.942;2022-08-19T03:15:20;6.50;;;4.77;;
5032;SDS011;2535;49.888;8.942;2022-08-19T03:17:46;16.53;;;3.17;;
5032;SDS011;2535;49.888;8.942;2022-08-19T03:20:12;6.20;;;3.37;;
5032;SDS011;2535;49.888;8.942;2022-08-19T03:22:38;9.77;;;3.83;;
5032;SDS011;2535;49.888;8.942;2022-08-19T03:25:04;7.93;;;3.40;;
5032;SDS011;2535;49.888;8.942;2022-08-19T03:27:30;4.30;;;3.17;;
5032;SDS011;2535;49.888;8.942;2022-08-19T03:29:56;6.10;;;3.00;;
5032;SDS011;2535;49.888;8.942;2022-08-19T03:32:23;9.53;;;3.70;;
5032;SDS011;2535;49.888;8.942;2022-08-19T03:34:49;8.73;;;3.80;;
5032;SDS011;2535;49.888;8.942;2022-08-19T03:37:16;7.37;;;3.60;;
5032;SDS011;2535;49.888;8.942;2022-08-19T03:39:41;8.90;;;4.20;;
5032;SDS011;2535;49.888;8.942;2022-08-19T03:42:08;9.67;;;3.93;;
5032;SDS011;2535;49.888;8.942;2022-08-19T03:44:34;8.83;;;3.80;;
5032;SDS011;2535;49.888;8.942;2022-08-19T03:47:02;8.97;;;3.87;;
5032;SDS011;2535;49.888;8.942;2022-08-19T03:49:29;11.43;;;4.60;;
5032;SDS011;2535;49.888;8.942;2022-08-19T03:51:56;9.93;;;4.00;;
5032;SDS011;2535;49.888;8.942;2022-08-19T03:54:22;13.27;;;6.30;;
5032;SDS011;2535;49.888;8.942;2022-08-19T03:56:50;5.27;;;4.10;;
5032;SDS011;2535;49.888;8.942;2022-08-19T03:59:18;6.50;;;2.50;;
5032;SDS011;2535;49.888;8.942;2022-08-19T04:01:45;8.63;;;4.20;;
5032;SDS011;2535;49.888;8.942;2022-08-19T04:04:11;6.33;;;4.43;;
5032;SDS011;2535;49.888;8.942;2022-08-19T04:06:38;17.03;;;5.00;;
5032;SDS011;2535;49.888;8.942;2022-08-19T04:09:05;4.07;;;2.70;;
5032;SDS011;2535;49.888;8.942;2022-08-19T04:11:33;6.20;;;4.50;;
5032;SDS011;2535;49.888;8.942;2022-08-19T04:14:00;6.27;;;2.57;;
5032;SDS011;2535;49.888;8.942;2022-08-19T04:16:26;8.23;;;3.47;;
5032;SDS011;2535;49.888;8.942;2022-08-19T04:18:56;5.00;;;2.60;;
5032;SDS011;2535;49.888;8.942;2022-08-19T04:21:25;5.13;;;3.27;;
5032;SDS011;2535;49.888;8.942;2022-08-19T04:23:52;3.63;;;2.70;;
5032;SDS011;2535;49.888;8.942;2022-08-19T04:26:28;15.53;;;4.87;;
5032;SDS011;2535;49.888;8.942;2022-08-19T04:28:57;4.30;;;3.80;;
5032;SDS011;2535;49.888;8.942;2022-08-19T04:31:24;10.13;;;3.57;;
5032;SDS011;2535;49.888;8.942;2022-08-19T04:33:51;5.33;;;3.23;;
5032;SDS011;2535;49.888;8.942;2022-08-19T04:36:19;5.60;;;3.13;;
5032;SDS011;2535;49.888;8.942;2022-08-19T04:38:46;6.67;;;3.30;;
5032;SDS011;2535;49.888;8.942;2022-08-19T04:41:12;4.40;;;2.83;;
5032;SDS011;2535;49.888;8.942;2022-08-19T04:43:57;4.63;;;4.07;;
5032;SDS011;2535;49.888;8.942;2022-08-19T04:46:23;6.67;;;2.23;;
5032;SDS011;2535;49.888;8.942;2022-08-19T04:48:49;4.27;;;3.30;;
5032;SDS011;2535;49.888;8.942;2022-08-19T04:51:15;27.23;;;4.90;;
5032;SDS011;2535;49.888;8.942;2022-08-19T04:53:42;5.43;;;4.03;;
5032;SDS011;2535;49.888;8.942;2022-08-19T04:56:09;10.60;;;3.40;;
5032;SDS011;2535;49.888;8.942;2022-08-19T04:58:36;9.50;;;4.47;;
5032;SDS011;2535;49.888;8.942;2022-08-19T05:01:02;4.80;;;2.77;;
5032;SDS011;2535;49.888;8.942;2022-08-19T05:03:28;10.70;;;3.40;;
5032;SDS011;2535;49.888;8.942;2022-08-19T05:05:58;3.33;;;2.50;;
5032;SDS011;2535;49.888;8.942;2022-08-19T05:08:29;6.90;;;5.33;;
5032;SDS011;2535;49.888;8.942;2022-08-19T05:10:55;18.97;;;3.20;;
5032;SDS011;2535;49.888;8.942;2022-08-19T05:13:22;3.77;;;3.13;;
5032;SDS011;2535;49.888;8.942;2022-08-19T05:15:55;5.13;;;3.43;;
5032;SDS011;2535;49.888;8.942;2022-08-19T05:18:21;11.43;;;2.30;;
5032;SDS011;2535;49.888;8.942;2022-08-19T05:21:09;4.77;;;3.20;;
5032;SDS011;2535;49.888;8.942;2022-08-19T05:23:54;6.50;;;3.10;;
5032;SDS011;2535;49.888;8.942;2022-08-19T05:26:20;7.63;;;2.63;;
5032;SDS011;2535;49.888;8.942;2022-08-19T05:28:46;12.63;;;2.97;;
5032;SDS011;2535;49.888;8.942;2022-08-19T05:31:12;6.00;;;3.70;;
5032;SDS011;2535;49.888;8.942;2022-08-19T05:33:38;2.70;;;1.90;;
5032;SDS011;2535;49.888;8.942;2022-08-19T05:36:05;5.70;;;3.50;;
5032;SDS011;2535;49.888;8.942;2022-08-19T05:38:32;2.93;;;2.60;;
5032;SDS011;2535;49.888;8.942;2022-08-19T05:40:58;13.33;;;3.37;;
5032;SDS011;2535;49.888;8.942;2022-08-19T05:43:24;6.67;;;2.43;;
5032;SDS011;2535;49.888;8.942;2022-08-19T05:45:50;4.13;;;3.50;;
5032;SDS011;2535;49.888;8.942;2022-08-19T05:48:16;9.73;;;6.07;;
5032;SDS011;2535;49.888;8.942;2022-08-19T05:50:45;3.73;;;2.70;;
5032;SDS011;2535;49.888;8.942;2022-08-19T05:53:11;5.63;;;3.50;;
5032;SDS011;2535;49.888;8.942;2022-08-19T05:55:37;7.33;;;3.70;;
5032;SDS011;2535;49.888;8.942;2022-08-19T05:58:04;4.83;;;2.17;;
5032;SDS011;2535;49.888;8.942;2022-08-19T06:00:32;17.93;;;3.17;;
5032;SDS011;2535;49.888;8.942;2022-08-19T06:02:58;12.47;;;3.50;;
5032;SDS011;2535;49.888;8.942;2022-08-19T06:05:28;10.00;;;2.30;;
5032;SDS011;2535;49.888;8.942;2022-08-19T06:07:54;3.67;;;1.93;;
5032;SDS011;2535;49.888;8.942;2022-08-19T06:10:20;5.30;;;2.73;;
5032;SDS011;2535;49.888;8.942;2022-08-19T06:12:46;5.00;;;3.43;;
5032;SDS011;2535;49.888;8.942;2022-08-19T06:15:13;4.40;;;3.47;;
5032;SDS011;2535;49.888;8.942;2022-08-19T06:17:39;5.60;;;2.20;;
5032;SDS011;2535;49.888;8.942;2022-08-19T06:20:07;2.43;;;1.93;;
5032;SDS011;2535;49.888;8.942;2022-08-19T06:22:38;2.93;;;2.63;;
5032;SDS011;2535;49.888;8.942;2022-08-19T06:25:04;7.97;;;2.10;;
5032;SDS011;2535;49.888;8.942;2022-08-19T06:27:30;5.13;;;2.60;;
5032;SDS011;2535;49.888;8.942;2022-08-19T06:29:57;4.00;;;2.57;;
5032;SDS011;2535;49.888;8.942;2022-08-19T06:32:23;2.27;;;1.80;;
5032;SDS011;2535;49.888;8.942;2022-08-19T06:34:49;9.50;;;2.17;;
5032;SDS011;2535;49.888;8.942;2022-08-19T06:37:15;2.90;;;2.07;;
5032;SDS011;2535;49.888;8.942;2022-08-19T06:39:42;3.03;;;2.30;;
5032;SDS011;2535;49.888;8.942;2022-08-19T06:42:08;4.27;;;2.50;;
5032;SDS011;2535;49.888;8.942;2022-08-19T06:44:36;5.87;;;2.30;;
5032;SDS011;2535;49.888;8.942;2022-08-19T06:47:04;3.37;;;2.37;;
5032;SDS011;2535;49.888;8.942;2022-08-19T06:49:30;4.30;;;2.00;;
5032;SDS011;2535;49.888;8.942;2022-08-19T06:51:57;3.90;;;2.47;;
5032;SDS011;2535;49.888;8.942;2022-08-19T06:54:23;5.53;;;2.03;;
5032;SDS011;2535;49.888;8.942;2022-08-19T06:56:49;5.43;;;2.67;;
5032;SDS011;2535;49.888;8.942;2022-08-19T06:59:19;4.23;;;3.93;;
5032;SDS011;2535;49.888;8.942;2022-08-19T07:01:47;4.40;;;2.60;;
5032;SDS011;2535;49.888;8.942;2022-08-19T07:04:15;10.53;;;2.67;;
5032;SDS011;2535;49.888;8.942;2022-08-19T07:06:41;4.20;;;3.20;;
5032;SDS011;2535;49.888;8.942;2022-08-19T07:09:09;5.50;;;4.10;;
5032;SDS011;2535;49.888;8.942;2022-08-19T07:11:36;5.20;;;2.87;;
5032;SDS011;2535;49.888;8.942;2022-08-19T07:14:02;3.20;;;2.37;;
5032;SDS011;2535;49.888;8.942;2022-08-19T07:16:29;6.00;;;2.83;;
5032;SDS011;2535;49.888;8.942;2022-08-19T07:18:55;7.63;;;3.87;;
5032;SDS011;2535;49.888;8.942;2022-08-19T07:21:23;6.27;;;2.87;;
5032;SDS011;2535;49.888;8.942;2022-08-19T07:23:51;15.97;;;2.30;;
5032;SDS011;2535;49.888;8.942;2022-08-19T07:26:19;5.63;;;2.33;;
5032;SDS011;2535;49.888;8.942;2022-08-19T07:28:46;3.10;;;1.83;;
5032;SDS011;2535;49.888;8.942;2022-08-19T07:31:14;4.50;;;3.40;;
5032;SDS011;2535;49.888;8.942;2022-08-19T07:33:40;3.87;;;2.40;;
5032;SDS011;2535;49.888;8.942;2022-08-19T07:36:08;2.93;;;1.60;;
5032;SDS011;2535;49.888;8.942;2022-08-19T07:38:38;5.50;;;1.23;;
5032;SDS011;2535;49.888;8.942;2022-08-19T07:41:05;3.57;;;1.83;;
5032;SDS011;2535;49.888;8.942;2022-08-19T07:43:31;3.93;;;2.10;;
5032;SDS011;2535;49.888;8.942;2022-08-19T07:45:57;3.10;;;2.07;;
5032;SDS011;2535;49.888;8.942;2022-08-19T07:48:24;4.60;;;3.27;;
5032;SDS011;2535;49.888;8.942;2022-08-19T07:50:52;3.83;;;3.40;;
5032;SDS011;2535;49.888;8.942;2022-08-19T07:53:18;4.47;;;2.67;;
5032;SDS011;2535;49.888;8.942;2022-08-19T07:55:44;6.23;;;2.37;;
5032;SDS011;2535;49.888;8.942;2022-08-19T07:58:12;6.20;;;2.33;;
5032;SDS011;2535;49.888;8.942;2022-08-19T08:00:38;5.93;;;3.07;;
5032;SDS011;2535;49.888;8.942;2022-08-19T08:03:04;2.77;;;2.10;;
5032;SDS011;2535;49.888;8.942;2022-08-19T08:05:30;1.97;;;1.57;;
5032;SDS011;2535;49.888;8.942;2022-08-19T08:08:14;2.17;;;1.77;;
5032;SDS011;2535;49.888;8.942;2022-08-19T08:10:59;2.03;;;1.20;;
5032;SDS011;2535;49.888;8.942;2022-08-19T08:13:26;2.83;;;2.03;;
5032;SDS011;2535;49.888;8.942;2022-08-19T08:15:52;3.33;;;2.20;;
5032;SDS011;2535;49.888;8.942;2022-08-19T08:18:18;3.43;;;1.87;;
5032;SDS011;2535;49.888;8.942;2022-08-19T08:20:45;3.80;;;1.87;;
5032;SDS011;2535;49.888;8.942;2022-08-19T08:23:11;3.27;;;2.30;;
5032;SDS011;2535;49.888;8.942;2022-08-19T08:25:55;5.90;;;2.00;;
5032;SDS011;2535;49.888;8.942;2022-08-19T08:28:21;2.43;;;1.40;;
5032;SDS011;2535;49.888;8.942;2022-08-19T08:30:48;1.90;;;1.63;;
5032;SDS011;2535;49.888;8.942;2022-08-19T08:33:22;2.07;;;1.87;;
5032;SDS011;2535;49.888;8.942;2022-08-19T08:35:48;2.50;;;1.23;;
5032;SDS011;2535;49.888;8.942;2022-08-19T08:38:14;7.47;;;1.67;;
5032;SDS011;2535;49.888;8.942;2022-08-19T08:45:52;2.63;;;1.60;;
5032;SDS011;2535;49.888;8.942;2022-08-19T08:48:28;2.10;;;1.10;;
5032;SDS011;2535;49.888;8.942;2022-08-19T08:50:56;6.90;;;2.30;;
5032;SDS011;2535;49.888;8.942;2022-08-19T08:53:22;2.17;;;1.97;;
5032;SDS011;2535;49.888;8.942;2022-08-19T08:55:49;2.33;;;1.43;;
5032;SDS011;2535;49.888;8.942;2022-08-19T08:58:17;1.57;;;1.13;;
5032;SDS011;2535;49.888;8.942;2022-08-19T09:00:48;4.70;;;2.17;;
5032;SDS011;2535;49.888;8.942;2022-08-19T09:03:19;1.20;;;0.97;;
5032;SDS011;2535;49.888;8.942;2022-08-19T09:16:22;1.53;;;0.90;;
5032;SDS011;2535;49.888;8.942;2022-08-19T09:18:53;1.53;;;1.30;;
5032;SDS011;2535;49.888;8.942;2022-08-19T09:21:21;2.33;;;1.30;;
5032;SDS011;2535;49.888;8.942;2022-08-19T09:23:48;4.03;;;2.33;;
5032;SDS011;2535;49.888;8.942;2022-08-19T09:26:15;2.03;;;1.30;;
5032;SDS011;2535;49.888;8.942;2022-08-19T09:28:42;1.80;;;1.10;;
5032;SDS011;2535;49.888;8.942;2022-08-19T09:31:12;1.00;;;0.90;;
5032;SDS011;2535;49.888;8.942;2022-08-19T09:33:38;1.10;;;1.00;;
5032;SDS011;2535;49.888;8.942;2022-08-19T09:36:06;1.53;;;1.43;;
5032;SDS011;2535;49.888;8.942;2022-08-19T09:38:32;1.23;;;1.13;;
5032;SDS011;2535;49.888;8.942;2022-08-19T09:41:02;2.30;;;1.70;;
5032;SDS011;2535;49.888;8.942;2022-08-19T09:43:29;3.47;;;1.40;;
5032;SDS011;2535;49.888;8.942;2022-08-19T09:45:55;1.97;;;1.40;;
5032;SDS011;2535;49.888;8.942;2022-08-19T09:48:21;1.67;;;1.30;;
5032;SDS011;2535;49.888;8.942;2022-08-19T09:50:47;1.83;;;1.30;;
5032;SDS011;2535;49.888;8.942;2022-08-19T09:53:14;1.83;;;0.93;;
5032;SDS011;2535;49.888;8.942;2022-08-19T09:55:44;4.27;;;1.23;;
5032;SDS011;2535;49.888;8.942;2022-08-19T09:58:09;1.03;;;0.93;;
5032;SDS011;2535;49.888;8.942;2022-08-19T10:00:37;2.00;;;1.30;;
5032;SDS011;2535;49.888;8.942;2022-08-19T10:03:03;1.20;;;0.90;;
5032;SDS011;2535;49.888;8.942;2022-08-19T10:05:29;1.83;;;1.37;;
5032;SDS011;2535;49.888;8.942;2022-08-19T10:08:14;1.00;;;0.90;;
5032;SDS011;2535;49.888;8.942;2022-08-19T10:10:40;2.77;;;1.10;;
5032;SDS011;2535;49.888;8.942;2022-08-19T10:13:09;1.67;;;1.00;;
5032;SDS011;2535;49.888;8.942;2022-08-19T10:15:35;3.70;;;1.17;;
5032;SDS011;2535;49.888;8.942;2022-08-19T10:18:05;3.80;;;1.07;;
5032;SDS011;2535;49.888;8.942;2022-08-19T10:20:34;1.73;;;0.97;;
5032;SDS011;2535;49.888;8.942;2022-08-19T10:23:01;1.47;;;0.80;;
5032;SDS011;2535;49.888;8.942;2022-08-19T10:25:27;1.40;;;1.20;;
5032;SDS011;2535;49.888;8.942;2022-08-19T10:27:53;1.63;;;1.37;;
5032;SDS011;2535;49.888;8.942;2022-08-19T10:30:19;0.90;;;0.80;;
5032;SDS011;2535;49.888;8.942;2022-08-19T10:32:46;1.10;;;0.90;;
5032;SDS011;2535;49.888;8.942;2022-08-19T10:35:12;1.53;;;0.90;;
5032;SDS011;2535;49.888;8.942;2022-08-19T10:37:38;3.80;;;1.70;;
5032;SDS011;2535;49.888;8.942;2022-08-19T10:40:05;3.10;;;1.33;;
5032;SDS011;2535;49.888;8.942;2022-08-19T10:42:32;2.70;;;1.63;;
5032;SDS011;2535;49.888;8.942;2022-08-19T10:44:58;2.17;;;1.20;;
5032;SDS011;2535;49.888;8.942;2022-08-19T10:47:24;1.40;;;1.00;;
5032;SDS011;2535;49.888;8.942;2022-08-19T10:49:50;3.03;;;1.17;;
5032;SDS011;2535;49.888;8.942;2022-08-19T10:52:40;1.10;;;1.00;;
5032;SDS011;2535;49.888;8.942;2022-08-19T10:55:07;3.63;;;1.50;;
5032;SDS011;2535;49.888;8.942;2022-08-19T10:57:52;2.00;;;1.00;;
5032;SDS011;2535;49.888;8.942;2022-08-19T11:00:19;1.20;;;0.97;;
5032;SDS011;2535;49.888;8.942;2022-08-19T11:02:45;3.23;;;1.20;;
5032;SDS011;2535;49.888;8.942;2022-08-19T11:05:11;1.83;;;0.97;;
5032;SDS011;2535;49.888;8.942;2022-08-19T11:07:38;0.90;;;0.80;;
5032;SDS011;2535;49.888;8.942;2022-08-19T11:10:05;1.83;;;1.50;;
5032;SDS011;2535;49.888;8.942;2022-08-19T11:12:31;1.70;;;1.20;;
5032;SDS011;2535;49.888;8.942;2022-08-19T11:14:57;0.90;;;0.70;;
5032;SDS011;2535;49.888;8.942;2022-08-19T11:17:24;2.03;;;1.30;;
5032;SDS011;2535;49.888;8.942;2022-08-19T11:19:49;1.90;;;1.27;;
5032;SDS011;2535;49.888;8.942;2022-08-19T11:22:15;1.83;;;1.10;;
5032;SDS011;2535;49.888;8.942;2022-08-19T11:24:42;1.17;;;1.07;;
5032;SDS011;2535;49.888;8.942;2022-08-19T11:27:10;2.07;;;1.40;;
5032;SDS011;2535;49.888;8.942;2022-08-19T11:29:39;1.10;;;0.90;;
5032;SDS011;2535;49.888;8.942;2022-08-19T11:32:07;1.00;;;0.80;;
5032;SDS011;2535;49.888;8.942;2022-08-19T11:34:34;4.63;;;0.93;;
5032;SDS011;2535;49.888;8.942;2022-08-19T11:37:00;1.83;;;1.13;;
5032;SDS011;2535;49.888;8.942;2022-08-19T11:39:27;2.10;;;1.33;;
5032;SDS011;2535;49.888;8.942;2022-08-19T11:41:53;1.13;;;0.90;;
5032;SDS011;2535;49.888;8.942;2022-08-19T11:44:20;1.80;;;1.70;;
5032;SDS011;2535;49.888;8.942;2022-08-19T11:46:46;2.10;;;1.67;;
5032;SDS011;2535;49.888;8.942;2022-08-19T11:49:12;1.30;;;0.80;;
5032;SDS011;2535;49.888;8.942;2022-08-19T11:51:39;1.27;;;1.03;;
5032;SDS011;2535;49.888;8.942;2022-08-19T11:54:08;0.93;;;0.87;;
5032;SDS011;2535;49.888;8.942;2022-08-19T11:56:34;1.20;;;1.03;;
5032;SDS011;2535;49.888;8.942;2022-08-19T11:59:02;2.23;;;1.57;;
5032;SDS011;2535;49.888;8.942;2022-08-19T12:01:28;1.37;;;1.27;;
5032;SDS011;2535;49.888;8.942;2022-08-19T12:03:54;2.20;;;1.30;;
5032;SDS011;2535;49.888;8.942;2022-08-19T12:06:21;2.40;;;1.37;;
5032;SDS011;2535;49.888;8.942;2022-08-19T12:08:50;1.23;;;1.07;;
5032;SDS011;2535;49.888;8.942;2022-08-19T12:11:16;2.17;;;1.33;;
5032;SDS011;2535;49.888;8.942;2022-08-19T12:13:42;0.80;;;0.80;;
5032;SDS011;2535;49.888;8.942;2022-08-19T12:16:14;1.57;;;1.43;;
5032;SDS011;2535;49.888;8.942;2022-08-19T12:18:40;1.00;;;0.77;;
5032;SDS011;2535;49.888;8.942;2022-08-19T12:21:08;1.57;;;1.13;;
5032;SDS011;2535;49.888;8.942;2022-08-19T12:23:35;1.53;;;1.33;;
5032;SDS011;2535;49.888;8.942;2022-08-19T12:26:02;1.00;;;0.80;;
5032;SDS011;2535;49.888;8.942;2022-08-19T12:28:28;4.13;;;2.20;;
5032;SDS011;2535;49.888;8.942;2022-08-19T12:30:55;1.50;;;1.20;;
5032;SDS011;2535;49.888;8.942;2022-08-19T12:33:21;1.53;;;1.43;;
5032;SDS011;2535;49.888;8.942;2022-08-19T12:35:50;3.47;;;1.90;;
5032;SDS011;2535;49.888;8.942;2022-08-19T12:38:16;2.40;;;1.43;;
5032;SDS011;2535;49.888;8.942;2022-08-19T12:40:44;2.00;;;1.50;;
5032;SDS011;2535;49.888;8.942;2022-08-19T12:43:11;2.73;;;1.73;;
5032;SDS011;2535;49.888;8.942;2022-08-19T12:45:37;4.30;;;1.70;;
5032;SDS011;2535;49.888;8.942;2022-08-19T12:48:03;1.90;;;1.60;;
5032;SDS011;2535;49.888;8.942;2022-08-19T12:50:29;2.20;;;1.37;;
5032;SDS011;2535;49.888;8.942;2022-08-19T12:52:55;1.87;;;1.13;;
5032;SDS011;2535;49.888;8.942;2022-08-19T12:55:22;5.37;;;2.20;;
5032;SDS011;2535;49.888;8.942;2022-08-19T12:57:48;2.50;;;1.47;;
5032;SDS011;2535;49.888;8.942;2022-08-19T13:00:16;2.13;;;1.70;;
5032;SDS011;2535;49.888;8.942;2022-08-19T13:02:43;1.63;;;1.47;;
5032;SDS011;2535;49.888;8.942;2022-08-19T13:05:10;2.53;;;2.00;;
5032;SDS011;2535;49.888;8.942;2022-08-19T13:07:38;0.90;;;0.80;;
5032;SDS011;2535;49.888;8.942;2022-08-19T13:10:05;1.80;;;1.53;;
5032;SDS011;2535;49.888;8.942;2022-08-19T13:12:31;3.07;;;1.50;;
5032;SDS011;2535;49.888;8.942;2022-08-19T13:14:57;2.10;;;1.90;;
5032;SDS011;2535;49.888;8.942;2022-08-19T13:17:23;2.50;;;1.90;;
5032;SDS011;2535;49.888;8.942;2022-08-19T13:19:49;4.27;;;1.93;;
5032;SDS011;2535;49.888;8.942;2022-08-19T13:22:15;1.47;;;1.37;;
5032;SDS011;2535;49.888;8.942;2022-08-19T13:24:41;3.97;;;2.70;;
5032;SDS011;2535;49.888;8.942;2022-08-19T13:27:07;1.87;;;1.47;;
5032;SDS011;2535;49.888;8.942;2022-08-19T13:29:33;2.90;;;1.90;;
5032;SDS011;2535;49.888;8.942;2022-08-19T13:32:18;2.80;;;2.50;;
5032;SDS011;2535;49.888;8.942;2022-08-19T13:35:03;3.60;;;1.60;;
5032;SDS011;2535;49.888;8.942;2022-08-19T13:37:29;3.50;;;1.83;;
5032;SDS011;2535;49.888;8.942;2022-08-19T13:42:39;2.60;;;2.03;;
5032;SDS011;2535;49.888;8.942;2022-08-19T13:45:05;1.10;;;1.00;;
5032;SDS011;2535;49.888;8.942;2022-08-19T13:47:32;2.10;;;1.53;;
5032;SDS011;2535;49.888;8.942;2022-08-19T13:49:59;2.10;;;1.73;;
5032;SDS011;2535;49.888;8.942;2022-08-19T13:52:25;10.23;;;3.07;;
5032;SDS011;2535;49.888;8.942;2022-08-19T13:54:51;10.03;;;2.23;;
5032;SDS011;2535;49.888;8.942;2022-08-19T13:57:17;1.83;;;1.37;;
5032;SDS011;2535;49.888;8.942;2022-08-19T13:59:43;6.13;;;2.13;;
5032;SDS011;2535;49.888;8.942;2022-08-19T14:02:09;1.63;;;1.53;;
5032;SDS011;2535;49.888;8.942;2022-08-19T14:04:35;2.97;;;1.93;;
5032;SDS011;2535;49.888;8.942;2022-08-19T14:07:02;1.80;;;1.70;;
5032;SDS011;2535;49.888;8.942;2022-08-19T14:09:28;4.67;;;1.90;;
5032;SDS011;2535;49.888;8.942;2022-08-19T14:11:54;2.40;;;1.80;;
5032;SDS011;2535;49.888;8.942;2022-08-19T14:14:20;2.73;;;1.93;;
5032;SDS011;2535;49.888;8.942;2022-08-19T14:16:47;2.97;;;1.23;;
5032;SDS011;2535;49.888;8.942;2022-08-19T14:19:13;2.43;;;1.90;;
5032;SDS011;2535;49.888;8.942;2022-08-19T14:21:39;1.93;;;1.40;;
5032;SDS011;2535;49.888;8.942;2022-08-19T14:24:06;2.40;;;1.67;;
5032;SDS011;2535;49.888;8.942;2022-08-19T14:26:32;2.83;;;1.90;;
5032;SDS011;2535;49.888;8.942;2022-08-19T14:28:58;2.57;;;2.37;;
5032;SDS011;2535;49.888;8.942;2022-08-19T14:31:24;2.60;;;1.70;;
5032;SDS011;2535;49.888;8.942;2022-08-19T14:33:50;2.07;;;1.10;;
5032;SDS011;2535;49.888;8.942;2022-08-19T14:36:17;1.53;;;1.03;;
5032;SDS011;2535;49.888;8.942;2022-08-19T14:38:43;1.70;;;1.47;;
5032;SDS011;2535;49.888;8.942;2022-08-19T14:41:10;2.23;;;1.23;;
5032;SDS011;2535;49.888;8.942;2022-08-19T14:43:37;1.63;;;1.30;;
5032;SDS011;2535;49.888;8.942;2022-08-19T14:46:03;2.80;;;1.40;;
5032;SDS011;2535;49.888;8.942;2022-08-19T14:48:29;2.47;;;1.53;;
5032;SDS011;2535;49.888;8.942;2022-08-19T14:50:55;3.07;;;1.17;;
5032;SDS011;2535;49.888;8.942;2022-08-19T14:53:21;3.87;;;1.60;;
5032;SDS011;2535;49.888;8.942;2022-08-19T14:55:46;7.13;;;2.63;;
5032;SDS011;2535;49.888;8.942;2022-08-19T14:58:13;2.30;;;2.10;;
5032;SDS011;2535;49.888;8.942;2022-08-19T15:00:39;3.63;;;1.70;;
5032;SDS011;2535;49.888;8.942;2022-08-19T15:03:05;1.53;;;1.43;;
5032;SDS011;2535;49.888;8.942;2022-08-19T15:05:31;5.97;;;1.60;;
5032;SDS011;2535;49.888;8.942;2022-08-19T15:07:57;1.00;;;0.83;;
5032;SDS011;2535;49.888;8.942;2022-08-19T15:10:27;2.30;;;1.20;;
5032;SDS011;2535;49.888;8.942;2022-08-19T15:12:53;1.80;;;1.10;;
5032;SDS011;2535;49.888;8.942;2022-08-19T15:15:19;1.80;;;1.40;;
5032;SDS011;2535;49.888;8.942;2022-08-19T15:17:46;1.27;;;1.17;;
5032;SDS011;2535;49.888;8.942;2022-08-19T15:20:14;1.00;;;0.73;;
5032;SDS011;2535;49.888;8.942;2022-08-19T15:22:40;1.90;;;1.33;;
5032;SDS011;2535;49.888;8.942;2022-08-19T15:25:07;6.93;;;2.53;;
5032;SDS011;2535;49.888;8.942;2022-08-19T15:27:34;10.80;;;0.97;;
5032;SDS011;2535;49.888;8.942;2022-08-19T15:30:01;1.87;;;1.50;;
5032;SDS011;2535;49.888;8.942;2022-08-19T15:32:27;1.87;;;1.47;;
5032;SDS011;2535;49.888;8.942;2022-08-19T15:34:53;1.90;;;1.27;;